sensor_id;sensor_type;location;lat;lon;timestamp;temperature;humidity
73322;DHT22;61549;37.044;22.128;2022-10-31T00:02:24;20.00;37.40
73322;DHT22;61549;37.044;22.128;2022-10-31T00:04:50;20.00;37.20
73322;DHT22;61549;37.044;22.128;2022-10-31T00:07:15;19.90;36.10
73322;DHT22;61549;37.044;22.128;2022-10-31T00:09:42;19.90;35.50
73322;DHT22;61549;37.044;22.128;2022-10-31T00:12:08;19.90;35.50
73322;DHT22;61549;37.044;22.128;2022-10-31T00:14:35;19.90;36.20
73322;DHT22;61549;37.044;22.128;2022-10-31T00:17:01;20.00;36.60
73322;DHT22;61549;37.044;22.128;2022-10-31T00:19:28;20.00;36.90
73322;DHT22;61549;37.044;22.128;2022-10-31T00:21:54;20.00;36.80
73322;DHT22;61549;37.044;22.128;2022-10-31T00:24:20;20.00;37.30
73322;DHT22;61549;37.044;22.128;2022-10-31T00:26:46;20.00;36.50
73322;DHT22;61549;37.044;22.128;2022-10-31T00:29:12;20.00;36.50
73322;DHT22;61549;37.044;22.128;2022-10-31T00:31:38;19.90;36.60
73322;DHT22;61549;37.044;22.128;2022-10-31T00:34:04;19.90;36.90
73322;DHT22;61549;37.044;22.128;2022-10-31T00:36:30;19.90;37.30
73322;DHT22;61549;37.044;22.128;2022-10-31T00:38:57;19.90;37.60
73322;DHT22;61549;37.044;22.128;2022-10-31T00:41:23;19.80;37.80
73322;DHT22;61549;37.044;22.128;2022-10-31T00:43:49;19.80;37.30
73322;DHT22;61549;37.044;22.128;2022-10-31T00:46:15;19.80;36.70
73322;DHT22;61549;37.044;22.128;2022-10-31T00:48:42;19.80;36.90
73322;DHT22;61549;37.044;22.128;2022-10-31T00:51:08;19.80;36.90
73322;DHT22;61549;37.044;22.128;2022-10-31T00:53:34;19.80;36.50
73322;DHT22;61549;37.044;22.128;2022-10-31T00:56:00;19.70;36.70
73322;DHT22;61549;37.044;22.128;2022-10-31T00:58:26;19.70;36.10
73322;DHT22;61549;37.044;22.128;2022-10-31T01:00:53;19.70;36.20
73322;DHT22;61549;37.044;22.128;2022-10-31T01:03:26;19.70;36.40
73322;DHT22;61549;37.044;22.128;2022-10-31T01:06:01;19.70;36.40
73322;DHT22;61549;37.044;22.128;2022-10-31T01:08:28;19.70;36.40
73322;DHT22;61549;37.044;22.128;2022-10-31T01:11:21;19.60;36.60
73322;DHT22;61549;37.044;22.128;2022-10-31T01:13:50;19.60;37.00
73322;DHT22;61549;37.044;22.128;2022-10-31T01:16:19;19.50;36.90
73322;DHT22;61549;37.044;22.128;2022-10-31T01:18:45;19.50;36.80
73322;DHT22;61549;37.044;22.128;2022-10-31T01:21:14;19.50;36.40
73322;DHT22;61549;37.044;22.128;2022-10-31T01:23:40;19.60;36.80
73322;DHT22;61549;37.044;22.128;2022-10-31T01:26:21;19.50;36.30
73322;DHT22;61549;37.044;22.128;2022-10-31T01:28:50;19.50;36.60
73322;DHT22;61549;37.044;22.128;2022-10-31T01:31:18;19.50;36.90
73322;DHT22;61549;37.044;22.128;2022-10-31T01:33:44;19.50;36.30
73322;DHT22;61549;37.044;22.128;2022-10-31T01:36:12;19.60;36.30
73322;DHT22;61549;37.044;22.128;2022-10-31T01:38:39;19.60;36.80
73322;DHT22;61549;37.044;22.128;2022-10-31T01:41:05;19.60;36.60
73322;DHT22;61549;37.044;22.128;2022-10-31T01:43:51;19.60;36.80
73322;DHT22;61549;37.044;22.128;2022-10-31T01:46:28;19.60;36.60
73322;DHT22;61549;37.044;22.128;2022-10-31T01:48:57;19.50;36.30
73322;DHT22;61549;37.044;22.128;2022-10-31T01:51:28;19.60;36.70
73322;DHT22;61549;37.044;22.128;2022-10-31T01:53:58;19.50;36.30
73322;DHT22;61549;37.044;22.128;2022-10-31T01:56:25;19.60;37.20
73322;DHT22;61549;37.044;22.128;2022-10-31T01:58:52;19.60;36.40
73322;DHT22;61549;37.044;22.128;2022-10-31T02:01:19;19.60;36.60
73322;DHT22;61549;37.044;22.128;2022-10-31T02:03:46;19.60;38.30
73322;DHT22;61549;37.044;22.128;2022-10-31T02:06:31;19.60;38.40
73322;DHT22;61549;37.044;22.128;2022-10-31T02:09:00;19.60;38.60
73322;DHT22;61549;37.044;22.128;2022-10-31T02:11:28;19.50;36.50
73322;DHT22;61549;37.044;22.128;2022-10-31T02:13:55;19.40;35.40
73322;DHT22;61549;37.044;22.128;2022-10-31T02:16:21;19.40;34.70
73322;DHT22;61549;37.044;22.128;2022-10-31T02:18:47;19.40;34.30
73322;DHT22;61549;37.044;22.128;2022-10-31T02:21:22;19.40;34.10
73322;DHT22;61549;37.044;22.128;2022-10-31T02:26:49;19.50;34.10
73322;DHT22;61549;37.044;22.128;2022-10-31T02:29:25;19.60;33.80
73322;DHT22;61549;37.044;22.128;2022-10-31T02:37:14;19.60;34.20
73322;DHT22;61549;37.044;22.128;2022-10-31T02:39:47;19.60;35.10
73322;DHT22;61549;37.044;22.128;2022-10-31T02:42:47;19.60;35.10
73322;DHT22;61549;37.044;22.128;2022-10-31T02:45:26;19.70;35.30
73322;DHT22;61549;37.044;22.128;2022-10-31T02:47:55;19.60;35.20
73322;DHT22;61549;37.044;22.128;2022-10-31T02:50:27;19.60;35.10
73322;DHT22;61549;37.044;22.128;2022-10-31T02:52:54;19.60;35.90
73322;DHT22;61549;37.044;22.128;2022-10-31T02:57:48;19.40;35.80
73322;DHT22;61549;37.044;22.128;2022-10-31T03:00:16;19.40;35.20
73322;DHT22;61549;37.044;22.128;2022-10-31T03:02:54;19.30;35.60
73322;DHT22;61549;37.044;22.128;2022-10-31T03:05:44;19.20;35.90
73322;DHT22;61549;37.044;22.128;2022-10-31T03:10:55;19.20;36.20
73322;DHT22;61549;37.044;22.128;2022-10-31T03:15:53;19.10;36.70
73322;DHT22;61549;37.044;22.128;2022-10-31T03:18:34;19.00;37.70
73322;DHT22;61549;37.044;22.128;2022-10-31T03:23:34;18.90;38.30
73322;DHT22;61549;37.044;22.128;2022-10-31T03:26:04;18.90;37.20
73322;DHT22;61549;37.044;22.128;2022-10-31T03:28:51;18.70;36.80
73322;DHT22;61549;37.044;22.128;2022-10-31T03:31:20;18.70;36.20
73322;DHT22;61549;37.044;22.128;2022-10-31T03:33:48;18.60;36.10
73322;DHT22;61549;37.044;22.128;2022-10-31T03:36:17;18.60;36.60
73322;DHT22;61549;37.044;22.128;2022-10-31T03:38:45;18.50;37.30
73322;DHT22;61549;37.044;22.128;2022-10-31T03:41:18;18.50;36.60
73322;DHT22;61549;37.044;22.128;2022-10-31T03:43:54;18.50;36.80
73322;DHT22;61549;37.044;22.128;2022-10-31T03:46:21;18.50;36.90
73322;DHT22;61549;37.044;22.128;2022-10-31T03:48:48;18.40;36.30
73322;DHT22;61549;37.044;22.128;2022-10-31T03:54:31;18.30;36.50
73322;DHT22;61549;37.044;22.128;2022-10-31T03:57:23;18.40;37.20
73322;DHT22;61549;37.044;22.128;2022-10-31T04:00:04;18.40;36.90
73322;DHT22;61549;37.044;22.128;2022-10-31T04:02:32;18.40;37.50
73322;DHT22;61549;37.044;22.128;2022-10-31T04:05:00;18.50;37.50
73322;DHT22;61549;37.044;22.128;2022-10-31T04:07:30;18.40;36.70
73322;DHT22;61549;37.044;22.128;2022-10-31T04:09:58;18.40;36.30
73322;DHT22;61549;37.044;22.128;2022-10-31T04:12:26;18.40;36.40
73322;DHT22;61549;37.044;22.128;2022-10-31T04:14:53;18.40;36.50
73322;DHT22;61549;37.044;22.128;2022-10-31T04:17:21;18.30;36.40
73322;DHT22;61549;37.044;22.128;2022-10-31T04:19:48;18.40;36.90
73322;DHT22;61549;37.044;22.128;2022-10-31T04:22:14;18.40;37.10
73322;DHT22;61549;37.044;22.128;2022-10-31T04:24:40;18.40;37.00
73322;DHT22;61549;37.044;22.128;2022-10-31T04:27:06;18.30;36.30
73322;DHT22;61549;37.044;22.128;2022-10-31T04:29:32;18.30;36.30
73322;DHT22;61549;37.044;22.128;2022-10-31T04:31:58;18.30;36.80
73322;DHT22;61549;37.044;22.128;2022-10-31T04:34:24;18.40;37.30
73322;DHT22;61549;37.044;22.128;2022-10-31T04:36:50;18.30;37.40
73322;DHT22;61549;37.044;22.128;2022-10-31T04:39:15;18.30;37.30
73322;DHT22;61549;37.044;22.128;2022-10-31T04:41:41;18.30;36.50
73322;DHT22;61549;37.044;22.128;2022-10-31T04:44:07;18.20;36.20
73322;DHT22;61549;37.044;22.128;2022-10-31T04:46:33;18.20;36.10
73322;DHT22;61549;37.044;22.128;2022-10-31T04:48:59;18.30;36.80
73322;DHT22;61549;37.044;22.128;2022-10-31T04:51:25;18.30;37.40
73322;DHT22;61549;37.044;22.128;2022-10-31T04:53:50;18.30;37.60
73322;DHT22;61549;37.044;22.128;2022-10-31T04:56:16;18.30;36.60
73322;DHT22;61549;37.044;22.128;2022-10-31T04:58:42;18.30;37.20
73322;DHT22;61549;37.044;22.128;2022-10-31T05:01:08;18.30;37.50
73322;DHT22;61549;37.044;22.128;2022-10-31T05:03:34;18.30;37.80
73322;DHT22;61549;37.044;22.128;2022-10-31T05:06:01;18.20;38.00
73322;DHT22;61549;37.044;22.128;2022-10-31T05:08:26;18.10;36.90
73322;DHT22;61549;37.044;22.128;2022-10-31T05:10:52;18.10;36.50
73322;DHT22;61549;37.044;22.128;2022-10-31T05:13:18;18.20;36.70
73322;DHT22;61549;37.044;22.128;2022-10-31T05:15:44;18.20;36.70
73322;DHT22;61549;37.044;22.128;2022-10-31T05:18:10;18.20;36.60
73322;DHT22;61549;37.044;22.128;2022-10-31T05:20:36;18.20;36.60
73322;DHT22;61549;37.044;22.128;2022-10-31T05:23:02;18.20;36.70
73322;DHT22;61549;37.044;22.128;2022-10-31T05:25:28;18.20;36.90
73322;DHT22;61549;37.044;22.128;2022-10-31T05:27:55;18.20;37.20
73322;DHT22;61549;37.044;22.128;2022-10-31T05:30:28;18.20;37.10
73322;DHT22;61549;37.044;22.128;2022-10-31T05:32:55;18.30;37.00
73322;DHT22;61549;37.044;22.128;2022-10-31T05:35:23;18.30;37.40
73322;DHT22;61549;37.044;22.128;2022-10-31T05:37:50;18.30;37.50
73322;DHT22;61549;37.044;22.128;2022-10-31T05:40:17;18.30;37.90
73322;DHT22;61549;37.044;22.128;2022-10-31T05:42:43;18.40;38.70
73322;DHT22;61549;37.044;22.128;2022-10-31T05:45:14;18.30;38.10
73322;DHT22;61549;37.044;22.128;2022-10-31T05:47:40;18.30;38.10
73322;DHT22;61549;37.044;22.128;2022-10-31T05:50:07;18.30;38.30
73322;DHT22;61549;37.044;22.128;2022-10-31T05:52:33;18.40;39.20
73322;DHT22;61549;37.044;22.128;2022-10-31T05:54:59;18.40;39.40
73322;DHT22;61549;37.044;22.128;2022-10-31T05:57:25;18.40;39.40
73322;DHT22;61549;37.044;22.128;2022-10-31T05:59:51;18.40;40.00
73322;DHT22;61549;37.044;22.128;2022-10-31T06:02:21;18.40;40.50
73322;DHT22;61549;37.044;22.128;2022-10-31T06:04:47;18.50;40.40
73322;DHT22;61549;37.044;22.128;2022-10-31T06:07:13;18.60;40.50
73322;DHT22;61549;37.044;22.128;2022-10-31T06:09:39;18.80;41.40
73322;DHT22;61549;37.044;22.128;2022-10-31T06:12:05;19.00;41.80
73322;DHT22;61549;37.044;22.128;2022-10-31T06:14:32;19.30;42.80
73322;DHT22;61549;37.044;22.128;2022-10-31T06:16:59;19.60;43.30
73322;DHT22;61549;37.044;22.128;2022-10-31T06:19:25;19.80;41.30
73322;DHT22;61549;37.044;22.128;2022-10-31T06:21:51;20.00;41.10
73322;DHT22;61549;37.044;22.128;2022-10-31T06:24:17;20.40;41.00
73322;DHT22;61549;37.044;22.128;2022-10-31T06:26:43;20.60;40.30
73322;DHT22;61549;37.044;22.128;2022-10-31T06:29:09;20.80;40.50
73322;DHT22;61549;37.044;22.128;2022-10-31T06:31:34;21.10;39.40
73322;DHT22;61549;37.044;22.128;2022-10-31T06:34:00;21.30;39.90
73322;DHT22;61549;37.044;22.128;2022-10-31T06:36:26;21.60;39.40
73322;DHT22;61549;37.044;22.128;2022-10-31T06:38:52;21.90;39.00
73322;DHT22;61549;37.044;22.128;2022-10-31T06:41:18;22.00;38.70
73322;DHT22;61549;37.044;22.128;2022-10-31T06:43:46;22.20;38.60
73322;DHT22;61549;37.044;22.128;2022-10-31T06:46:13;22.40;37.90
73322;DHT22;61549;37.044;22.128;2022-10-31T06:48:43;22.60;38.10
73322;DHT22;61549;37.044;22.128;2022-10-31T06:51:09;22.80;37.20
73322;DHT22;61549;37.044;22.128;2022-10-31T06:53:35;23.00;38.60
73322;DHT22;61549;37.044;22.128;2022-10-31T06:56:02;23.20;39.10
73322;DHT22;61549;37.044;22.128;2022-10-31T06:58:28;23.40;36.30
73322;DHT22;61549;37.044;22.128;2022-10-31T07:00:58;23.60;34.20
73322;DHT22;61549;37.044;22.128;2022-10-31T07:03:23;23.70;33.00
73322;DHT22;61549;37.044;22.128;2022-10-31T07:05:49;23.80;34.00
73322;DHT22;61549;37.044;22.128;2022-10-31T07:08:15;23.90;34.10
73322;DHT22;61549;37.044;22.128;2022-10-31T07:10:42;24.00;35.10
73322;DHT22;61549;37.044;22.128;2022-10-31T07:13:12;24.10;36.80
73322;DHT22;61549;37.044;22.128;2022-10-31T07:15:40;24.30;37.90
73322;DHT22;61549;37.044;22.128;2022-10-31T07:18:08;24.50;36.90
73322;DHT22;61549;37.044;22.128;2022-10-31T07:20:34;24.60;37.70
73322;DHT22;61549;37.044;22.128;2022-10-31T07:23:00;24.80;37.60
73322;DHT22;61549;37.044;22.128;2022-10-31T07:25:26;24.90;37.10
73322;DHT22;61549;37.044;22.128;2022-10-31T07:27:53;25.00;37.10
73322;DHT22;61549;37.044;22.128;2022-10-31T07:30:19;25.20;37.40
73322;DHT22;61549;37.044;22.128;2022-10-31T07:32:48;25.20;37.40
73322;DHT22;61549;37.044;22.128;2022-10-31T07:35:22;25.30;36.80
73322;DHT22;61549;37.044;22.128;2022-10-31T07:37:48;25.40;36.50
73322;DHT22;61549;37.044;22.128;2022-10-31T07:40:16;25.50;38.30
73322;DHT22;61549;37.044;22.128;2022-10-31T07:42:46;25.60;36.90
73322;DHT22;61549;37.044;22.128;2022-10-31T07:45:15;25.60;36.40
73322;DHT22;61549;37.044;22.128;2022-10-31T07:47:43;25.70;36.70
73322;DHT22;61549;37.044;22.128;2022-10-31T07:50:13;25.90;36.30
73322;DHT22;61549;37.044;22.128;2022-10-31T07:52:40;26.00;36.20
73322;DHT22;61549;37.044;22.128;2022-10-31T07:55:06;26.00;37.70
73322;DHT22;61549;37.044;22.128;2022-10-31T07:57:33;26.10;37.50
73322;DHT22;61549;37.044;22.128;2022-10-31T07:59:58;26.30;36.80
73322;DHT22;61549;37.044;22.128;2022-10-31T08:02:25;26.40;37.00
73322;DHT22;61549;37.044;22.128;2022-10-31T08:04:51;26.40;37.80
73322;DHT22;61549;37.044;22.128;2022-10-31T08:07:17;26.40;37.30
73322;DHT22;61549;37.044;22.128;2022-10-31T08:09:43;26.30;37.10
73322;DHT22;61549;37.044;22.128;2022-10-31T08:12:09;26.40;36.90
73322;DHT22;61549;37.044;22.128;2022-10-31T08:14:35;26.60;37.60
73322;DHT22;61549;37.044;22.128;2022-10-31T08:17:01;26.70;37.90
73322;DHT22;61549;37.044;22.128;2022-10-31T08:19:27;26.90;37.20
73322;DHT22;61549;37.044;22.128;2022-10-31T08:21:53;26.90;37.00
73322;DHT22;61549;37.044;22.128;2022-10-31T08:24:22;26.90;36.40
73322;DHT22;61549;37.044;22.128;2022-10-31T08:26:48;27.00;36.30
73322;DHT22;61549;37.044;22.128;2022-10-31T08:29:15;27.10;36.50
73322;DHT22;61549;37.044;22.128;2022-10-31T08:31:42;27.20;36.80
73322;DHT22;61549;37.044;22.128;2022-10-31T08:34:08;27.10;35.80
73322;DHT22;61549;37.044;22.128;2022-10-31T08:36:34;27.10;36.00
73322;DHT22;61549;37.044;22.128;2022-10-31T08:39:01;27.00;36.20
73322;DHT22;61549;37.044;22.128;2022-10-31T08:41:27;27.10;36.30
73322;DHT22;61549;37.044;22.128;2022-10-31T08:43:53;27.00;36.40
73322;DHT22;61549;37.044;22.128;2022-10-31T08:46:19;27.00;36.20
73322;DHT22;61549;37.044;22.128;2022-10-31T08:49:04;27.20;37.10
73322;DHT22;61549;37.044;22.128;2022-10-31T08:51:30;27.20;36.50
73322;DHT22;61549;37.044;22.128;2022-10-31T08:53:56;27.30;36.60
73322;DHT22;61549;37.044;22.128;2022-10-31T08:56:22;27.30;37.30
73322;DHT22;61549;37.044;22.128;2022-10-31T08:58:48;27.40;36.50
73322;DHT22;61549;37.044;22.128;2022-10-31T09:01:13;27.40;36.40
73322;DHT22;61549;37.044;22.128;2022-10-31T09:03:39;27.50;37.20
73322;DHT22;61549;37.044;22.128;2022-10-31T09:06:05;27.50;37.70
73322;DHT22;61549;37.044;22.128;2022-10-31T09:08:34;27.20;37.60
73322;DHT22;61549;37.044;22.128;2022-10-31T09:11:01;27.30;37.70
73322;DHT22;61549;37.044;22.128;2022-10-31T09:13:27;27.30;38.40
73322;DHT22;61549;37.044;22.128;2022-10-31T09:15:53;27.40;38.00
73322;DHT22;61549;37.044;22.128;2022-10-31T09:18:21;27.30;37.10
73322;DHT22;61549;37.044;22.128;2022-10-31T09:20:47;27.30;37.50
73322;DHT22;61549;37.044;22.128;2022-10-31T09:23:18;27.20;37.90
73322;DHT22;61549;37.044;22.128;2022-10-31T09:25:45;27.20;38.40
73322;DHT22;61549;37.044;22.128;2022-10-31T09:28:13;27.20;37.90
73322;DHT22;61549;37.044;22.128;2022-10-31T09:30:39;27.20;37.50
73322;DHT22;61549;37.044;22.128;2022-10-31T09:33:12;27.30;38.20
73322;DHT22;61549;37.044;22.128;2022-10-31T09:35:40;27.20;37.80
73322;DHT22;61549;37.044;22.128;2022-10-31T09:38:18;27.10;37.50
73322;DHT22;61549;37.044;22.128;2022-10-31T09:41:07;27.10;37.50
73322;DHT22;61549;37.044;22.128;2022-10-31T09:43:54;27.30;37.40
73322;DHT22;61549;37.044;22.128;2022-10-31T09:52:10;27.00;36.90
73322;DHT22;61549;37.044;22.128;2022-10-31T09:54:54;27.10;37.30
73322;DHT22;61549;37.044;22.128;2022-10-31T09:57:34;27.20;37.40
73322;DHT22;61549;37.044;22.128;2022-10-31T10:00:04;27.30;37.50
73322;DHT22;61549;37.044;22.128;2022-10-31T10:02:37;27.20;37.40
73322;DHT22;61549;37.044;22.128;2022-10-31T10:05:32;27.20;37.10
73322;DHT22;61549;37.044;22.128;2022-10-31T10:08:20;26.90;37.70
73322;DHT22;61549;37.044;22.128;2022-10-31T10:10:54;26.70;38.50
73322;DHT22;61549;37.044;22.128;2022-10-31T10:21:38;26.90;38.10
73322;DHT22;61549;37.044;22.128;2022-10-31T10:24:30;26.90;38.00
73322;DHT22;61549;37.044;22.128;2022-10-31T10:27:24;26.80;37.70
73322;DHT22;61549;37.044;22.128;2022-10-31T10:30:04;27.00;38.20
73322;DHT22;61549;37.044;22.128;2022-10-31T10:32:45;27.10;37.90
73322;DHT22;61549;37.044;22.128;2022-10-31T10:35:24;27.10;37.30
73322;DHT22;61549;37.044;22.128;2022-10-31T10:40:42;27.10;36.30
73322;DHT22;61549;37.044;22.128;2022-10-31T10:43:35;27.20;37.10
73322;DHT22;61549;37.044;22.128;2022-10-31T10:49:17;27.20;37.10
73322;DHT22;61549;37.044;22.128;2022-10-31T10:54:50;26.90;36.80
73322;DHT22;61549;37.044;22.128;2022-10-31T10:59:47;27.20;36.20
73322;DHT22;61549;37.044;22.128;2022-10-31T11:02:25;27.40;36.20
73322;DHT22;61549;37.044;22.128;2022-10-31T11:04:57;27.40;36.20
73322;DHT22;61549;37.044;22.128;2022-10-31T11:07:23;27.50;36.00
73322;DHT22;61549;37.044;22.128;2022-10-31T11:09:49;27.70;35.80
73322;DHT22;61549;37.044;22.128;2022-10-31T11:12:33;27.70;36.80
73322;DHT22;61549;37.044;22.128;2022-10-31T11:15:07;27.70;36.00
73322;DHT22;61549;37.044;22.128;2022-10-31T11:17:38;27.80;35.90
73322;DHT22;61549;37.044;22.128;2022-10-31T11:22:44;27.70;36.00
73322;DHT22;61549;37.044;22.128;2022-10-31T11:27:45;27.60;35.20
73322;DHT22;61549;37.044;22.128;2022-10-31T11:30:14;27.60;36.30
73322;DHT22;61549;37.044;22.128;2022-10-31T11:32:58;27.60;35.40
73322;DHT22;61549;37.044;22.128;2022-10-31T11:35:24;27.70;35.70
73322;DHT22;61549;37.044;22.128;2022-10-31T11:37:53;27.70;34.60
73322;DHT22;61549;37.044;22.128;2022-10-31T11:40:23;27.60;34.70
73322;DHT22;61549;37.044;22.128;2022-10-31T11:42:51;27.70;34.70
73322;DHT22;61549;37.044;22.128;2022-10-31T11:45:29;27.80;35.00
73322;DHT22;61549;37.044;22.128;2022-10-31T11:47:57;27.90;35.90
73322;DHT22;61549;37.044;22.128;2022-10-31T11:52:58;28.00;34.40
73322;DHT22;61549;37.044;22.128;2022-10-31T11:55:34;27.80;36.10
73322;DHT22;61549;37.044;22.128;2022-10-31T11:58:01;27.70;36.70
73322;DHT22;61549;37.044;22.128;2022-10-31T12:00:30;27.60;36.70
73322;DHT22;61549;37.044;22.128;2022-10-31T12:05:42;27.70;37.00
73322;DHT22;61549;37.044;22.128;2022-10-31T12:08:12;27.60;35.60
73322;DHT22;61549;37.044;22.128;2022-10-31T12:10:59;27.80;34.50
73322;DHT22;61549;37.044;22.128;2022-10-31T12:13:33;28.00;35.10
73322;DHT22;61549;37.044;22.128;2022-10-31T12:16:22;28.10;35.90
73322;DHT22;61549;37.044;22.128;2022-10-31T12:24:26;28.10;35.70
73322;DHT22;61549;37.044;22.128;2022-10-31T12:30:04;28.10;36.40
73322;DHT22;61549;37.044;22.128;2022-10-31T12:33:01;28.00;35.50
73322;DHT22;61549;37.044;22.128;2022-10-31T12:44:26;27.70;37.60
73322;DHT22;61549;37.044;22.128;2022-10-31T12:50:06;27.50;38.40
73322;DHT22;61549;37.044;22.128;2022-10-31T12:55:53;27.70;38.30
73322;DHT22;61549;37.044;22.128;2022-10-31T13:01:09;27.70;38.20
73322;DHT22;61549;37.044;22.128;2022-10-31T13:07:00;27.70;39.60
73322;DHT22;61549;37.044;22.128;2022-10-31T13:09:34;27.80;39.10
73322;DHT22;61549;37.044;22.128;2022-10-31T13:12:07;27.80;39.40
73322;DHT22;61549;37.044;22.128;2022-10-31T13:14:44;27.60;39.80
73322;DHT22;61549;37.044;22.128;2022-10-31T13:17:30;27.50;39.00
73322;DHT22;61549;37.044;22.128;2022-10-31T13:22:38;27.50;39.80
73322;DHT22;61549;37.044;22.128;2022-10-31T13:25:16;27.50;39.60
73322;DHT22;61549;37.044;22.128;2022-10-31T13:27:53;27.20;38.80
73322;DHT22;61549;37.044;22.128;2022-10-31T13:30:24;27.00;40.40
73322;DHT22;61549;37.044;22.128;2022-10-31T13:33:25;27.00;40.00
73322;DHT22;61549;37.044;22.128;2022-10-31T13:38:49;27.00;39.10
73322;DHT22;61549;37.044;22.128;2022-10-31T13:41:38;27.10;38.60
73322;DHT22;61549;37.044;22.128;2022-10-31T13:46:46;26.90;39.60
73322;DHT22;61549;37.044;22.128;2022-10-31T13:49:38;26.90;40.20
73322;DHT22;61549;37.044;22.128;2022-10-31T13:54:38;27.00;39.80
73322;DHT22;61549;37.044;22.128;2022-10-31T13:57:43;27.00;40.40
73322;DHT22;61549;37.044;22.128;2022-10-31T14:02:53;27.10;39.10
73322;DHT22;61549;37.044;22.128;2022-10-31T14:05:32;27.10;38.90
73322;DHT22;61549;37.044;22.128;2022-10-31T14:08:04;27.10;38.40
73322;DHT22;61549;37.044;22.128;2022-10-31T14:10:45;27.20;39.30
73322;DHT22;61549;37.044;22.128;2022-10-31T14:13:20;27.20;38.90
73322;DHT22;61549;37.044;22.128;2022-10-31T14:16:00;27.10;38.40
73322;DHT22;61549;37.044;22.128;2022-10-31T14:18:35;27.10;38.80
73322;DHT22;61549;37.044;22.128;2022-10-31T14:21:59;27.00;39.00
73322;DHT22;61549;37.044;22.128;2022-10-31T14:24:00;27.10;38.70
73322;DHT22;61549;37.044;22.128;2022-10-31T14:28:53;27.20;40.20
73322;DHT22;61549;37.044;22.128;2022-10-31T14:31:41;27.20;40.20
73322;DHT22;61549;37.044;22.128;2022-10-31T14:34:53;27.10;38.10
73322;DHT22;61549;37.044;22.128;2022-10-31T14:37:38;27.10;40.20
73322;DHT22;61549;37.044;22.128;2022-10-31T14:45:26;27.00;40.30
73322;DHT22;61549;37.044;22.128;2022-10-31T14:50:47;26.90;39.80
73322;DHT22;61549;37.044;22.128;2022-10-31T14:53:30;26.90;42.20
73322;DHT22;61549;37.044;22.128;2022-10-31T14:55:58;26.90;40.60
73322;DHT22;61549;37.044;22.128;2022-10-31T14:58:41;26.80;39.90
73322;DHT22;61549;37.044;22.128;2022-10-31T15:01:28;26.70;40.10
73322;DHT22;61549;37.044;22.128;2022-10-31T15:04:20;26.60;42.10
73322;DHT22;61549;37.044;22.128;2022-10-31T15:06:51;26.50;42.70
73322;DHT22;61549;37.044;22.128;2022-10-31T15:09:31;26.40;42.90
73322;DHT22;61549;37.044;22.128;2022-10-31T15:14:45;26.30;45.60
73322;DHT22;61549;37.044;22.128;2022-10-31T15:17:11;26.00;46.10
73322;DHT22;61549;37.044;22.128;2022-10-31T15:19:38;25.90;46.90
73322;DHT22;61549;37.044;22.128;2022-10-31T15:22:04;25.70;47.10
73322;DHT22;61549;37.044;22.128;2022-10-31T15:24:36;25.60;47.30
73322;DHT22;61549;37.044;22.128;2022-10-31T15:27:03;25.50;47.60
73322;DHT22;61549;37.044;22.128;2022-10-31T15:29:29;25.30;47.50
73322;DHT22;61549;37.044;22.128;2022-10-31T15:31:58;25.20;47.80
73322;DHT22;61549;37.044;22.128;2022-10-31T15:34:42;25.10;48.50
73322;DHT22;61549;37.044;22.128;2022-10-31T15:37:12;25.00;48.30
73322;DHT22;61549;37.044;22.128;2022-10-31T15:39:39;24.90;48.50
73322;DHT22;61549;37.044;22.128;2022-10-31T15:42:14;24.70;48.60
73322;DHT22;61549;37.044;22.128;2022-10-31T15:44:41;24.60;48.90
73322;DHT22;61549;37.044;22.128;2022-10-31T15:47:22;24.50;49.10
73322;DHT22;61549;37.044;22.128;2022-10-31T15:56:30;24.00;49.70
73322;DHT22;61549;37.044;22.128;2022-10-31T15:58:59;23.80;49.70
73322;DHT22;61549;37.044;22.128;2022-10-31T16:01:33;23.60;49.20
73322;DHT22;61549;37.044;22.128;2022-10-31T16:04:03;23.70;49.50
73322;DHT22;61549;37.044;22.128;2022-10-31T16:06:31;23.60;49.50
73322;DHT22;61549;37.044;22.128;2022-10-31T16:08:58;23.60;49.40
73322;DHT22;61549;37.044;22.128;2022-10-31T16:11:38;23.60;49.50
73322;DHT22;61549;37.044;22.128;2022-10-31T16:16:42;23.50;49.50
73322;DHT22;61549;37.044;22.128;2022-10-31T16:19:23;23.50;49.40
73322;DHT22;61549;37.044;22.128;2022-10-31T16:22:05;23.40;49.30
73322;DHT22;61549;37.044;22.128;2022-10-31T16:24:44;23.30;49.30
73322;DHT22;61549;37.044;22.128;2022-10-31T16:27:22;23.30;49.30
73322;DHT22;61549;37.044;22.128;2022-10-31T16:29:57;23.30;49.00
73322;DHT22;61549;37.044;22.128;2022-10-31T16:35:38;23.20;48.90
73322;DHT22;61549;37.044;22.128;2022-10-31T16:38:11;23.20;49.00
73322;DHT22;61549;37.044;22.128;2022-10-31T16:40:41;23.20;49.00
73322;DHT22;61549;37.044;22.128;2022-10-31T16:43:15;23.10;48.80
73322;DHT22;61549;37.044;22.128;2022-10-31T16:45:47;23.20;48.50
73322;DHT22;61549;37.044;22.128;2022-10-31T16:48:16;23.20;48.20
73322;DHT22;61549;37.044;22.128;2022-10-31T16:50:43;23.20;48.10
73322;DHT22;61549;37.044;22.128;2022-10-31T16:53:10;23.20;48.10
73322;DHT22;61549;37.044;22.128;2022-10-31T16:55:47;23.20;47.90
73322;DHT22;61549;37.044;22.128;2022-10-31T16:58:21;23.20;47.60
73322;DHT22;61549;37.044;22.128;2022-10-31T17:00:48;23.10;47.60
73322;DHT22;61549;37.044;22.128;2022-10-31T17:03:14;23.10;47.60
73322;DHT22;61549;37.044;22.128;2022-10-31T17:05:40;23.10;47.40
73322;DHT22;61549;37.044;22.128;2022-10-31T17:08:06;23.10;47.50
73322;DHT22;61549;37.044;22.128;2022-10-31T17:10:32;23.00;47.60
73322;DHT22;61549;37.044;22.128;2022-10-31T17:13:02;23.00;47.70
73322;DHT22;61549;37.044;22.128;2022-10-31T17:15:53;23.00;47.60
73322;DHT22;61549;37.044;22.128;2022-10-31T17:18:18;23.00;47.60
73322;DHT22;61549;37.044;22.128;2022-10-31T17:20:44;23.00;47.60
73322;DHT22;61549;37.044;22.128;2022-10-31T17:23:12;23.00;47.70
73322;DHT22;61549;37.044;22.128;2022-10-31T17:25:38;23.00;47.70
73322;DHT22;61549;37.044;22.128;2022-10-31T17:28:05;22.90;47.60
73322;DHT22;61549;37.044;22.128;2022-10-31T17:30:31;22.90;47.60
73322;DHT22;61549;37.044;22.128;2022-10-31T17:32:58;22.90;47.60
73322;DHT22;61549;37.044;22.128;2022-10-31T17:35:24;22.90;47.90
73322;DHT22;61549;37.044;22.128;2022-10-31T17:37:52;22.80;47.70
73322;DHT22;61549;37.044;22.128;2022-10-31T17:40:20;22.90;47.50
73322;DHT22;61549;37.044;22.128;2022-10-31T17:42:56;22.90;47.20
73322;DHT22;61549;37.044;22.128;2022-10-31T17:45:23;22.90;47.60